sensor_id;sensor_type;location;lat;lon;timestamp;pressure;altitude;pressure_sealevel;temperature;humidity
21960;BME280;11144;43.030;25.108;2023-01-26T00:00:30;100104.00;;;2.31;100.00
21960;BME280;11144;43.030;25.108;2023-01-26T00:02:03;100109.19;;;2.28;100.00
21960;BME280;11144;43.030;25.108;2023-01-26T00:03:38;100113.47;;;2.20;100.00
21960;BME280;11144;43.030;25.108;2023-01-26T00:05:11;100114.34;;;2.23;100.00
21960;BME280;11144;43.030;25.108;2023-01-26T00:06:44;100118.72;;;2.27;100.00
21960;BME280;11144;43.030;25.108;2023-01-26T00:08:17;100104.81;;;2.25;100.00
21960;BME280;11144;43.030;25.108;2023-01-26T00:09:51;100117.91;;;2.33;100.00
21960;BME280;11144;43.030;25.108;2023-01-26T00:11:26;100119.66;;;2.34;100.00
21960;BME280;11144;43.030;25.108;2023-01-26T00:13:00;100112.66;;;2.30;100.00
21960;BME280;11144;43.030;25.108;2023-01-26T00:14:33;100109.22;;;2.31;100.00
21960;BME280;11144;43.030;25.108;2023-01-26T00:16:21;100096.94;;;2.21;100.00
21960;BME280;11144;43.030;25.108;2023-01-26T00:17:55;100103.03;;;2.23;100.00
21960;BME280;11144;43.030;25.108;2023-01-26T00:19:29;100104.84;;;2.30;100.00
21960;BME280;11144;43.030;25.108;2023-01-26T00:21:03;100101.31;;;2.25;100.00
21960;BME280;11144;43.030;25.108;2023-01-26T00:22:36;100091.75;;;2.24;100.00
21960;BME280;11144;43.030;25.108;2023-01-26T00:24:10;100090.03;;;2.26;100.00
21960;BME280;11144;43.030;25.108;2023-01-26T00:25:43;100097.00;;;2.30;100.00
21960;BME280;11144;43.030;25.108;2023-01-26T00:27:16;100103.09;;;2.27;100.00
21960;BME280;11144;43.030;25.108;2023-01-26T00:28:50;100098.69;;;2.22;100.00
21960;BME280;11144;43.030;25.108;2023-01-26T00:30:23;100091.69;;;2.18;100.00
21960;BME280;11144;43.030;25.108;2023-01-26T00:31:56;100088.22;;;2.16;100.00
21960;BME280;11144;43.030;25.108;2023-01-26T00:33:29;100096.00;;;2.14;100.00
21960;BME280;11144;43.030;25.108;2023-01-26T00:35:04;100086.50;;;2.21;100.00
21960;BME280;11144;43.030;25.108;2023-01-26T00:36:40;100087.38;;;2.20;100.00
21960;BME280;11144;43.030;25.108;2023-01-26T00:38:13;100076.94;;;2.20;100.00
21960;BME280;11144;43.030;25.108;2023-01-26T00:39:46;100078.69;;;2.21;100.00
21960;BME280;11144;43.030;25.108;2023-01-26T00:41:20;100081.28;;;2.21;100.00
21960;BME280;11144;43.030;25.108;2023-01-26T00:43:12;100065.56;;;2.15;100.00
21960;BME280;11144;43.030;25.108;2023-01-26T00:44:46;100077.00;;;2.27;100.00
21960;BME280;11144;43.030;25.108;2023-01-26T00:46:19;100070.06;;;2.28;100.00
21960;BME280;11144;43.030;25.108;2023-01-26T00:47:51;100080.50;;;2.28;100.00
21960;BME280;11144;43.030;25.108;2023-01-26T00:49:25;100068.28;;;2.24;100.00
21960;BME280;11144;43.030;25.108;2023-01-26T00:50:58;100066.50;;;2.20;100.00
21960;BME280;11144;43.030;25.108;2023-01-26T00:52:32;100066.50;;;2.18;100.00
21960;BME280;11144;43.030;25.108;2023-01-26T00:54:05;100067.38;;;2.22;100.00
21960;BME280;11144;43.030;25.108;2023-01-26T00:55:37;100058.66;;;2.21;100.00
21960;BME280;11144;43.030;25.108;2023-01-26T00:57:10;100062.19;;;2.25;100.00
21960;BME280;11144;43.030;25.108;2023-01-26T00:58:45;100055.25;;;2.24;100.00
21960;BME280;11144;43.030;25.108;2023-01-26T01:00:18;100054.34;;;2.23;100.00
21960;BME280;11144;43.030;25.108;2023-01-26T01:01:52;100050.94;;;2.29;100.00
21960;BME280;11144;43.030;25.108;2023-01-26T01:03:24;100055.25;;;2.27;100.00
21960;BME280;11144;43.030;25.108;2023-01-26T01:04:58;100055.28;;;2.30;100.00
21960;BME280;11144;43.030;25.108;2023-01-26T01:06:32;100046.63;;;2.34;100.00
21960;BME280;11144;43.030;25.108;2023-01-26T01:08:05;100044.88;;;2.33;100.00
21960;BME280;11144;43.030;25.108;2023-01-26T01:09:38;100036.19;;;2.34;100.00
21960;BME280;11144;43.030;25.108;2023-01-26T01:11:12;100023.97;;;2.30;100.00
21960;BME280;11144;43.030;25.108;2023-01-26T01:12:47;100037.81;;;2.23;100.00
21960;BME280;11144;43.030;25.108;2023-01-26T01:14:21;100029.13;;;2.21;100.00
21960;BME280;11144;43.030;25.108;2023-01-26T01:15:54;100036.06;;;2.19;100.00
21960;BME280;11144;43.030;25.108;2023-01-26T01:17:26;100034.34;;;2.21;100.00
21960;BME280;11144;43.030;25.108;2023-01-26T01:18:59;100036.94;;;2.19;100.00
21960;BME280;11144;43.030;25.108;2023-01-26T01:20:33;100033.50;;;2.23;100.00
21960;BME280;11144;43.030;25.108;2023-01-26T01:22:07;100042.19;;;2.22;100.00
21960;BME280;11144;43.030;25.108;2023-01-26T01:23:41;100040.44;;;2.24;100.00
21960;BME280;11144;43.030;25.108;2023-01-26T01:25:14;100043.03;;;2.20;100.00
21960;BME280;11144;43.030;25.108;2023-01-26T01:26:48;100043.00;;;2.17;100.00
21960;BME280;11144;43.030;25.108;2023-01-26T01:28:21;100043.84;;;2.17;100.00
21960;BME280;11144;43.030;25.108;2023-01-26T01:29:53;100034.31;;;2.18;100.00
21960;BME280;11144;43.030;25.108;2023-01-26T01:31:27;100023.03;;;2.20;100.00
21960;BME280;11144;43.030;25.108;2023-01-26T01:33:00;100030.91;;;2.25;100.00
21960;BME280;11144;43.030;25.108;2023-01-26T01:34:33;100022.19;;;2.23;100.00
21960;BME280;11144;43.030;25.108;2023-01-26T01:36:09;100022.19;;;2.20;100.00
21960;BME280;11144;43.030;25.108;2023-01-26T01:37:43;100016.06;;;2.19;100.00
21960;BME280;11144;43.030;25.108;2023-01-26T01:39:17;100013.50;;;2.24;100.00
21960;BME280;11144;43.030;25.108;2023-01-26T01:40:50;100013.50;;;2.24;100.00
21960;BME280;11144;43.030;25.108;2023-01-26T01:42:22;100015.28;;;2.28;100.00
21960;BME280;11144;43.030;25.108;2023-01-26T01:44:13;100010.03;;;2.25;100.00
21960;BME280;11144;43.030;25.108;2023-01-26T01:45:47;100011.75;;;2.20;100.00
21960;BME280;11144;43.030;25.108;2023-01-26T01:47:22;100015.19;;;2.16;100.00
21960;BME280;11144;43.030;25.108;2023-01-26T01:49:00;100009.03;;;2.11;100.00
21960;BME280;11144;43.030;25.108;2023-01-26T01:50:36;100011.69;;;2.14;100.00
21960;BME280;11144;43.030;25.108;2023-01-26T01:52:12;100010.78;;;2.13;100.00
21960;BME280;11144;43.030;25.108;2023-01-26T01:53:50;100008.22;;;2.18;100.00
21960;BME280;11144;43.030;25.108;2023-01-26T01:55:24;100003.06;;;2.21;100.00
21960;BME280;11144;43.030;25.108;2023-01-26T01:56:59;100004.75;;;2.19;100.00
21960;BME280;11144;43.030;25.108;2023-01-26T01:58:37;100001.22;;;2.11;100.00
21960;BME280;11144;43.030;25.108;2023-01-26T02:00:14;100001.25;;;2.14;100.00
21960;BME280;11144;43.030;25.108;2023-01-26T02:01:52;99999.50;;;2.13;100.00
21960;BME280;11144;43.030;25.108;2023-01-26T02:03:26;99989.97;;;2.16;100.00
21960;BME280;11144;43.030;25.108;2023-01-26T02:05:14;99987.41;;;2.21;100.00
21960;BME280;11144;43.030;25.108;2023-01-26T02:06:52;99994.34;;;2.22;100.00
21960;BME280;11144;43.030;25.108;2023-01-26T02:08:30;99984.75;;;2.18;100.00
21960;BME280;11144;43.030;25.108;2023-01-26T02:10:07;99989.13;;;2.22;100.00
21960;BME280;11144;43.030;25.108;2023-01-26T02:11:49;99986.53;;;2.23;100.00
21960;BME280;11144;43.030;25.108;2023-01-26T02:13:23;99993.47;;;2.17;100.00
21960;BME280;11144;43.030;25.108;2023-01-26T02:14:57;99991.69;;;2.14;100.00
21960;BME280;11144;43.030;25.108;2023-01-26T02:16:30;99983.88;;;2.13;100.00
21960;BME280;11144;43.030;25.108;2023-01-26T02:18:04;99980.34;;;2.11;100.00
21960;BME280;11144;43.030;25.108;2023-01-26T02:19:45;99979.50;;;2.09;100.00
21960;BME280;11144;43.030;25.108;2023-01-26T02:21:21;99973.38;;;2.07;100.00
21960;BME280;11144;43.030;25.108;2023-01-26T02:22:59;99961.22;;;2.09;100.00
21960;BME280;11144;43.030;25.108;2023-01-26T02:24:36;99959.47;;;2.08;100.00
21960;BME280;11144;43.030;25.108;2023-01-26T02:26:14;99972.53;;;2.09;100.00
21960;BME280;11144;43.030;25.108;2023-01-26T02:27:48;99972.53;;;2.11;100.00
21960;BME280;11144;43.030;25.108;2023-01-26T02:29:21;99978.66;;;2.13;100.00
21960;BME280;11144;43.030;25.108;2023-01-26T02:30:55;99974.28;;;2.09;100.00
21960;BME280;11144;43.030;25.108;2023-01-26T02:32:28;99969.97;;;2.14;100.00
21960;BME280;11144;43.030;25.108;2023-01-26T02:34:01;99966.50;;;2.18;100.00
21960;BME280;11144;43.030;25.108;2023-01-26T02:35:34;99966.50;;;2.18;100.00
21960;BME280;11144;43.030;25.108;2023-01-26T02:37:12;99964.78;;;2.17;100.00
21960;BME280;11144;43.030;25.108;2023-01-26T02:38:52;99975.19;;;2.17;100.00
21960;BME280;11144;43.030;25.108;2023-01-26T02:40:32;99956.03;;;2.15;100.00
21960;BME280;11144;43.030;25.108;2023-01-26T02:42:10;99963.03;;;2.19;100.00
21960;BME280;11144;43.030;25.108;2023-01-26T02:44:02;99954.38;;;2.23;100.00
21960;BME280;11144;43.030;25.108;2023-01-26T02:45:35;99947.38;;;2.16;100.00
21960;BME280;11144;43.030;25.108;2023-01-26T02:47:13;99948.22;;;2.15;100.00
21960;BME280;11144;43.030;25.108;2023-01-26T02:48:47;99947.25;;;2.04;100.00
21960;BME280;11144;43.030;25.108;2023-01-26T02:50:37;99945.56;;;2.06;100.00
21960;BME280;11144;43.030;25.108;2023-01-26T02:52:10;99945.59;;;2.09;100.00
21960;BME280;11144;43.030;25.108;2023-01-26T02:53:43;99956.03;;;2.15;100.00
21960;BME280;11144;43.030;25.108;2023-01-26T02:55:17;99939.53;;;2.17;100.00
21960;BME280;11144;43.030;25.108;2023-01-26T02:56:56;99943.91;;;2.17;100.00
21960;BME280;11144;43.030;25.108;2023-01-26T02:58:30;99941.31;;;2.21;100.00
21960;BME280;11144;43.030;25.108;2023-01-26T03:00:05;99941.31;;;2.21;100.00
21960;BME280;11144;43.030;25.108;2023-01-26T03:01:38;99924.84;;;2.27;100.00
21960;BME280;11144;43.030;25.108;2023-01-26T03:03:17;99927.44;;;2.28;100.00
21960;BME280;11144;43.030;25.108;2023-01-26T03:04:51;99924.00;;;2.31;100.00
21960;BME280;11144;43.030;25.108;2023-01-26T03:06:23;99910.94;;;2.25;100.00
21960;BME280;11144;43.030;25.108;2023-01-26T03:07:57;99909.19;;;2.24;100.00
21960;BME280;11144;43.030;25.108;2023-01-26T03:09:35;99924.00;;;2.32;100.00
21960;BME280;11144;43.030;25.108;2023-01-26T03:11:09;99924.00;;;2.32;100.00
21960;BME280;11144;43.030;25.108;2023-01-26T03:12:42;99917.94;;;2.32;100.00
21960;BME280;11144;43.030;25.108;2023-01-26T03:14:16;99914.47;;;2.36;100.00
21960;BME280;11144;43.030;25.108;2023-01-26T03:15:49;99906.66;;;2.36;100.00
21960;BME280;11144;43.030;25.108;2023-01-26T03:17:26;99908.34;;;2.32;100.00
21960;BME280;11144;43.030;25.108;2023-01-26T03:19:00;99907.50;;;2.32;100.00
21960;BME280;11144;43.030;25.108;2023-01-26T03:20:51;99904.84;;;2.26;100.00
21960;BME280;11144;43.030;25.108;2023-01-26T03:22:42;99914.41;;;2.30;100.00
21960;BME280;11144;43.030;25.108;2023-01-26T03:24:41;99900.50;;;2.25;100.00
21960;BME280;11144;43.030;25.108;2023-01-26T03:26:33;99890.00;;;2.19;100.00
21960;BME280;11144;43.030;25.108;2023-01-26T03:28:25;99895.25;;;2.22;100.00
21960;BME280;11144;43.030;25.108;2023-01-26T03:30:00;99898.72;;;2.21;100.00
21960;BME280;11144;43.030;25.108;2023-01-26T03:31:34;99897.84;;;2.22;100.00
21960;BME280;11144;43.030;25.108;2023-01-26T03:33:07;99898.75;;;2.22;100.00
21960;BME280;11144;43.030;25.108;2023-01-26T03:34:40;99897.00;;;2.26;100.00
21960;BME280;11144;43.030;25.108;2023-01-26T03:36:14;99890.06;;;2.25;100.00
21960;BME280;11144;43.030;25.108;2023-01-26T03:37:46;99884.91;;;2.37;100.00
21960;BME280;11144;43.030;25.108;2023-01-26T03:39:43;99893.56;;;2.33;100.00
21960;BME280;11144;43.030;25.108;2023-01-26T03:41:34;99886.59;;;2.29;100.00
21960;BME280;11144;43.030;25.108;2023-01-26T03:43:26;99889.16;;;2.24;100.00
21960;BME280;11144;43.030;25.108;2023-01-26T03:45:18;99880.50;;;2.24;100.00
21960;BME280;11144;43.030;25.108;2023-01-26T03:47:09;99883.97;;;2.26;100.00
21960;BME280;11144;43.030;25.108;2023-01-26T03:49:00;99883.09;;;2.24;100.00
21960;BME280;11144;43.030;25.108;2023-01-26T03:50:54;99882.19;;;2.19;100.00
21960;BME280;11144;43.030;25.108;2023-01-26T03:52:45;99883.09;;;2.21;100.00
21960;BME280;11144;43.030;25.108;2023-01-26T03:54:36;99872.69;;;2.24;100.00
21960;BME280;11144;43.030;25.108;2023-01-26T03:56:28;99872.66;;;2.22;100.00
21960;BME280;11144;43.030;25.108;2023-01-26T03:58:09;99876.97;;;2.20;100.00
21960;BME280;11144;43.030;25.108;2023-01-26T03:59:42;99868.25;;;2.12;100.00
21960;BME280;11144;43.030;25.108;2023-01-26T04:01:24;99869.13;;;2.13;100.00
21960;BME280;11144;43.030;25.108;2023-01-26T04:03:02;99879.63;;;2.25;100.00
21960;BME280;11144;43.030;25.108;2023-01-26T04:04:53;99870.06;;;2.30;100.00
21960;BME280;11144;43.030;25.108;2023-01-26T04:06:48;99860.56;;;2.35;100.00
21960;BME280;11144;43.030;25.108;2023-01-26T04:08:41;99860.47;;;2.23;100.00
21960;BME280;11144;43.030;25.108;2023-01-26T04:10:15;99862.22;;;2.27;100.00
21960;BME280;11144;43.030;25.108;2023-01-26T04:11:48;99862.25;;;2.30;100.00
21960;BME280;11144;43.030;25.108;2023-01-26T04:13:23;99857.91;;;2.27;100.00
21960;BME280;11144;43.030;25.108;2023-01-26T04:15:18;99858.81;;;2.31;100.00
21960;BME280;11144;43.030;25.108;2023-01-26T04:17:11;99855.31;;;2.29;100.00
21960;BME280;11144;43.030;25.108;2023-01-26T04:19:02;99855.31;;;2.32;100.00
21960;BME280;11144;43.030;25.108;2023-01-26T04:20:53;99855.31;;;2.29;100.00
21960;BME280;11144;43.030;25.108;2023-01-26T04:22:46;99842.28;;;2.32;100.00
21960;BME280;11144;43.030;25.108;2023-01-26T04:24:21;99837.09;;;2.35;100.00
21960;BME280;11144;43.030;25.108;2023-01-26T04:25:59;99832.72;;;2.35;100.00
21960;BME280;11144;43.030;25.108;2023-01-26T04:27:33;99834.44;;;2.27;100.00
21960;BME280;11144;43.030;25.108;2023-01-26T04:29:09;99835.31;;;2.26;100.00
21960;BME280;11144;43.030;25.108;2023-01-26T04:30:43;99825.72;;;2.27;100.00
21960;BME280;11144;43.030;25.108;2023-01-26T04:32:19;99830.09;;;2.32;100.00
21960;BME280;11144;43.030;25.108;2023-01-26T04:33:52;99827.50;;;2.37;100.00
21960;BME280;11144;43.030;25.108;2023-01-26T04:35:25;99843.19;;;2.40;100.00
21960;BME280;11144;43.030;25.108;2023-01-26T04:36:59;99839.69;;;2.38;100.00
21960;BME280;11144;43.030;25.108;2023-01-26T04:38:44;99840.56;;;2.38;100.00
21960;BME280;11144;43.030;25.108;2023-01-26T04:40:20;99842.31;;;2.39;100.00
21960;BME280;11144;43.030;25.108;2023-01-26T04:41:53;99832.72;;;2.34;100.00
21960;BME280;11144;43.030;25.108;2023-01-26T04:43:26;99818.78;;;2.29;100.00
21960;BME280;11144;43.030;25.108;2023-01-26T04:44:59;99829.25;;;2.32;100.00
21960;BME280;11144;43.030;25.108;2023-01-26T04:46:34;99830.97;;;2.33;100.00
21960;BME280;11144;43.030;25.108;2023-01-26T04:48:09;99824.91;;;2.35;100.00
21960;BME280;11144;43.030;25.108;2023-01-26T04:49:42;99831.03;;;2.40;100.00
21960;BME280;11144;43.030;25.108;2023-01-26T04:51:19;99824.06;;;2.41;100.00
21960;BME280;11144;43.030;25.108;2023-01-26T04:52:53;99831.03;;;2.39;100.00
21960;BME280;11144;43.030;25.108;2023-01-26T04:54:27;99836.25;;;2.45;100.00
21960;BME280;11144;43.030;25.108;2023-01-26T04:56:00;99824.09;;;2.47;100.00
21960;BME280;11144;43.030;25.108;2023-01-26T04:57:34;99814.53;;;2.47;100.00
21960;BME280;11144;43.030;25.108;2023-01-26T04:59:09;99826.72;;;2.50;100.00
21960;BME280;11144;43.030;25.108;2023-01-26T05:00:49;99820.59;;;2.46;100.00
21960;BME280;11144;43.030;25.108;2023-01-26T05:02:23;99822.34;;;2.46;100.00
21960;BME280;11144;43.030;25.108;2023-01-26T05:03:59;99822.34;;;2.46;100.00
21960;BME280;11144;43.030;25.108;2023-01-26T05:05:35;99825.81;;;2.45;100.00
21960;BME280;11144;43.030;25.108;2023-01-26T05:07:08;99828.41;;;2.43;100.00
21960;BME280;11144;43.030;25.108;2023-01-26T05:08:42;99821.44;;;2.39;100.00
21960;BME280;11144;43.030;25.108;2023-01-26T05:10:16;99821.47;;;2.42;100.00
21960;BME280;11144;43.030;25.108;2023-01-26T05:12:22;99817.09;;;2.40;100.00
21960;BME280;11144;43.030;25.108;2023-01-26T05:14:29;99809.28;;;2.41;100.00
21960;BME280;11144;43.030;25.108;2023-01-26T05:16:08;99810.16;;;2.40;100.00
21960;BME280;11144;43.030;25.108;2023-01-26T05:18:04;99806.63;;;2.34;100.00
21960;BME280;11144;43.030;25.108;2023-01-26T05:19:45;99813.59;;;2.32;100.00
21960;BME280;11144;43.030;25.108;2023-01-26T05:21:37;99806.59;;;2.25;100.00
21960;BME280;11144;43.030;25.108;2023-01-26T05:23:10;99797.03;;;2.22;100.00
21960;BME280;11144;43.030;25.108;2023-01-26T05:25:09;99805.69;;;2.21;100.00
21960;BME280;11144;43.030;25.108;2023-01-26T05:26:59;99803.09;;;2.23;100.00
21960;BME280;11144;43.030;25.108;2023-01-26T05:28:46;99796.13;;;2.19;100.00
21960;BME280;11144;43.030;25.108;2023-01-26T05:30:20;99790.94;;;2.22;100.00
21960;BME280;11144;43.030;25.108;2023-01-26T05:31:54;99791.81;;;2.21;100.00
21960;BME280;11144;43.030;25.108;2023-01-26T05:33:28;99786.53;;;2.13;100.00
21960;BME280;11144;43.030;25.108;2023-01-26T05:35:05;99792.69;;;2.20;100.00
21960;BME280;11144;43.030;25.108;2023-01-26T05:36:38;99788.28;;;2.17;100.00
21960;BME280;11144;43.030;25.108;2023-01-26T05:38:12;99784.84;;;2.17;100.00
21960;BME280;11144;43.030;25.108;2023-01-26T05:39:46;99790.03;;;2.21;100.00
21960;BME280;11144;43.030;25.108;2023-01-26T05:41:19;99783.06;;;2.17;100.00
21960;BME280;11144;43.030;25.108;2023-01-26T05:43:15;99789.19;;;2.18;100.00
21960;BME280;11144;43.030;25.108;2023-01-26T05:45:07;99790.91;;;2.13;100.00
21960;BME280;11144;43.030;25.108;2023-01-26T05:46:44;99784.81;;;2.12;100.00
21960;BME280;11144;43.030;25.108;2023-01-26T05:48:17;99771.75;;;2.11;100.00
21960;BME280;11144;43.030;25.108;2023-01-26T05:49:52;99783.91;;;2.12;100.00
21960;BME280;11144;43.030;25.108;2023-01-26T05:51:31;99769.16;;;2.12;100.00
21960;BME280;11144;43.030;25.108;2023-01-26T05:53:05;99771.75;;;2.11;100.00
21960;BME280;11144;43.030;25.108;2023-01-26T05:54:41;99767.38;;;2.07;100.00
21960;BME280;11144;43.030;25.108;2023-01-26T05:56:14;99769.13;;;2.08;100.00
21960;BME280;11144;43.030;25.108;2023-01-26T05:57:52;99776.94;;;2.08;100.00
21960;BME280;11144;43.030;25.108;2023-01-26T05:59:25;99770.00;;;2.07;100.00
21960;BME280;11144;43.030;25.108;2023-01-26T06:01:03;99759.59;;;2.10;100.00
21960;BME280;11144;43.030;25.108;2023-01-26T06:02:45;99764.78;;;2.07;100.00
21960;BME280;11144;43.030;25.108;2023-01-26T06:04:21;99757.84;;;2.06;100.00
21960;BME280;11144;43.030;25.108;2023-01-26T06:05:57;99753.47;;;2.06;100.00
21960;BME280;11144;43.030;25.108;2023-01-26T06:07:42;99767.38;;;2.07;100.00
21960;BME280;11144;43.030;25.108;2023-01-26T06:09:41;99761.31;;;2.11;100.00
21960;BME280;11144;43.030;25.108;2023-01-26T06:11:25;99749.16;;;2.10;100.00
21960;BME280;11144;43.030;25.108;2023-01-26T06:13:30;99756.09;;;2.08;100.00
21960;BME280;11144;43.030;25.108;2023-01-26T06:15:27;99764.81;;;2.10;100.00
21960;BME280;11144;43.030;25.108;2023-01-26T06:17:01;99744.81;;;2.06;100.00
21960;BME280;11144;43.030;25.108;2023-01-26T06:18:34;99749.13;;;2.07;100.00
21960;BME280;11144;43.030;25.108;2023-01-26T06:20:10;99739.59;;;2.09;100.00
21960;BME280;11144;43.030;25.108;2023-01-26T06:21:49;99740.44;;;2.08;100.00
21960;BME280;11144;43.030;25.108;2023-01-26T06:23:26;99736.97;;;2.12;100.00
21960;BME280;11144;43.030;25.108;2023-01-26T06:25:02;99740.47;;;2.14;100.00
21960;BME280;11144;43.030;25.108;2023-01-26T06:26:36;99743.97;;;2.16;100.00
21960;BME280;11144;43.030;25.108;2023-01-26T06:28:10;99739.66;;;2.22;100.00
21960;BME280;11144;43.030;25.108;2023-01-26T06:29:43;99737.03;;;2.27;100.00
21960;BME280;11144;43.030;25.108;2023-01-26T06:31:17;99737.06;;;2.30;100.00
21960;BME280;11144;43.030;25.108;2023-01-26T06:32:51;99733.59;;;2.29;100.00
21960;BME280;11144;43.030;25.108;2023-01-26T06:34:25;99732.72;;;2.30;100.00
21960;BME280;11144;43.030;25.108;2023-01-26T06:36:00;99732.72;;;2.29;100.00
21960;BME280;11144;43.030;25.108;2023-01-26T06:37:34;99736.19;;;2.28;100.00
21960;BME280;11144;43.030;25.108;2023-01-26T06:39:11;99737.03;;;2.27;100.00
21960;BME280;11144;43.030;25.108;2023-01-26T06:40:44;99736.16;;;2.22;100.00
21960;BME280;11144;43.030;25.108;2023-01-26T06:42:18;99745.75;;;2.26;100.00
21960;BME280;11144;43.030;25.108;2023-01-26T06:43:51;99723.13;;;2.25;100.00
21960;BME280;11144;43.030;25.108;2023-01-26T06:45:25;99728.38;;;2.28;100.00
21960;BME280;11144;43.030;25.108;2023-01-26T06:46:59;99728.34;;;2.25;100.00
21960;BME280;11144;43.030;25.108;2023-01-26T06:48:33;99724.88;;;2.29;100.00
21960;BME280;11144;43.030;25.108;2023-01-26T06:50:09;99728.38;;;2.29;100.00
21960;BME280;11144;43.030;25.108;2023-01-26T06:51:57;99728.38;;;2.37;100.00
21960;BME280;11144;43.030;25.108;2023-01-26T06:53:54;99728.41;;;2.43;100.00
21960;BME280;11144;43.030;25.108;2023-01-26T06:55:37;99726.66;;;2.45;100.00
21960;BME280;11144;43.030;25.108;2023-01-26T06:57:31;99724.09;;;2.51;100.00
21960;BME280;11144;43.030;25.108;2023-01-26T06:59:15;99719.75;;;2.53;100.00
21960;BME280;11144;43.030;25.108;2023-01-26T07:00:51;99717.13;;;2.56;100.00
21960;BME280;11144;43.030;25.108;2023-01-26T07:02:37;99723.25;;;2.58;100.00
21960;BME280;11144;43.030;25.108;2023-01-26T07:04:10;99728.44;;;2.52;100.00
21960;BME280;11144;43.030;25.108;2023-01-26T07:05:43;99717.13;;;2.50;100.00
21960;BME280;11144;43.030;25.108;2023-01-26T07:07:16;99717.16;;;2.51;100.00
21960;BME280;11144;43.030;25.108;2023-01-26T07:08:50;99720.59;;;2.50;100.00
21960;BME280;11144;43.030;25.108;2023-01-26T07:10:23;99723.19;;;2.49;100.00
21960;BME280;11144;43.030;25.108;2023-01-26T07:11:57;99718.88;;;2.52;100.00
21960;BME280;11144;43.030;25.108;2023-01-26T07:13:30;99718.00;;;2.52;100.00
21960;BME280;11144;43.030;25.108;2023-01-26T07:15:04;99718.91;;;2.57;100.00
21960;BME280;11144;43.030;25.108;2023-01-26T07:16:38;99718.00;;;2.52;100.00
21960;BME280;11144;43.030;25.108;2023-01-26T07:18:11;99702.34;;;2.52;100.00
21960;BME280;11144;43.030;25.108;2023-01-26T07:19:44;99711.03;;;2.51;100.00
21960;BME280;11144;43.030;25.108;2023-01-26T07:21:17;99700.63;;;2.54;100.00
21960;BME280;11144;43.030;25.108;2023-01-26T07:22:51;99707.59;;;2.58;100.00
21960;BME280;11144;43.030;25.108;2023-01-26T07:24:24;99704.97;;;2.61;100.00
21960;BME280;11144;43.030;25.108;2023-01-26T07:25:58;99697.13;;;2.52;100.00
21960;BME280;11144;43.030;25.108;2023-01-26T07:27:33;99709.31;;;2.59;100.00
21960;BME280;11144;43.030;25.108;2023-01-26T07:29:06;99700.63;;;2.63;100.00
21960;BME280;11144;43.030;25.108;2023-01-26T07:30:39;99687.56;;;2.64;100.00
21960;BME280;11144;43.030;25.108;2023-01-26T07:32:12;99697.13;;;2.65;100.00
21960;BME280;11144;43.030;25.108;2023-01-26T07:33:46;99701.50;;;2.65;100.00
21960;BME280;11144;43.030;25.108;2023-01-26T07:35:19;99693.66;;;2.62;100.00
21960;BME280;11144;43.030;25.108;2023-01-26T07:36:52;99692.78;;;2.61;100.00
21960;BME280;11144;43.030;25.108;2023-01-26T07:38:25;99679.72;;;2.60;100.00
21960;BME280;11144;43.030;25.108;2023-01-26T07:39:59;99680.63;;;2.63;100.00
21960;BME280;11144;43.030;25.108;2023-01-26T07:41:33;99682.38;;;2.67;100.00
21960;BME280;11144;43.030;25.108;2023-01-26T07:43:18;99687.59;;;2.76;100.00
21960;BME280;11144;43.030;25.108;2023-01-26T07:44:52;99684.09;;;2.82;100.00
21960;BME280;11144;43.030;25.108;2023-01-26T07:46:25;99674.56;;;2.84;100.00
21960;BME280;11144;43.030;25.108;2023-01-26T07:47:58;99679.78;;;2.90;100.00
21960;BME280;11144;43.030;25.108;2023-01-26T07:49:31;99673.69;;;2.92;100.00
21960;BME280;11144;43.030;25.108;2023-01-26T07:51:05;99672.81;;;2.98;100.00
21960;BME280;11144;43.030;25.108;2023-01-26T07:52:40;99666.72;;;3.02;100.00
21960;BME280;11144;43.030;25.108;2023-01-26T07:54:14;99662.34;;;3.07;100.00
21960;BME280;11144;43.030;25.108;2023-01-26T07:55:47;99657.13;;;3.07;100.00
21960;BME280;11144;43.030;25.108;2023-01-26T07:57:21;99658.00;;;3.13;100.00
21960;BME280;11144;43.030;25.108;2023-01-26T07:58:55;99655.38;;;3.18;100.00
21960;BME280;11144;43.030;25.108;2023-01-26T08:00:29;99654.53;;;3.14;100.00
21960;BME280;11144;43.030;25.108;2023-01-26T08:02:02;99664.97;;;3.14;100.00
21960;BME280;11144;43.030;25.108;2023-01-26T08:03:35;99659.75;;;3.13;100.00
21960;BME280;11144;43.030;25.108;2023-01-26T08:05:09;99663.22;;;3.15;100.00
21960;BME280;11144;43.030;25.108;2023-01-26T08:06:42;99659.75;;;3.11;100.00
21960;BME280;11144;43.030;25.108;2023-01-26T08:08:16;99657.13;;;3.16;100.00
21960;BME280;11144;43.030;25.108;2023-01-26T08:09:50;99667.59;;;3.16;100.00
21960;BME280;11144;43.030;25.108;2023-01-26T08:11:23;99662.38;;;3.16;100.00
21960;BME280;11144;43.030;25.108;2023-01-26T08:12:57;99660.59;;;3.18;100.00
21960;BME280;11144;43.030;25.108;2023-01-26T08:14:32;99651.03;;;3.20;100.00
21960;BME280;11144;43.030;25.108;2023-01-26T08:16:17;99652.78;;;3.22;100.00
21960;BME280;11144;43.030;25.108;2023-01-26T08:17:52;99655.38;;;3.27;100.00
21960;BME280;11144;43.030;25.108;2023-01-26T08:19:25;99653.63;;;3.29;100.00
21960;BME280;11144;43.030;25.108;2023-01-26T08:20:59;99658.84;;;3.29;100.00
21960;BME280;11144;43.030;25.108;2023-01-26T08:22:32;99664.06;;;3.32;100.00
21960;BME280;11144;43.030;25.108;2023-01-26T08:24:06;99660.59;;;3.28;100.00
21960;BME280;11144;43.030;25.108;2023-01-26T08:25:39;99665.81;;;3.33;100.00
21960;BME280;11144;43.030;25.108;2023-01-26T08:27:12;99662.31;;;3.37;100.00